Time;durP1;ratioP1;P1;durP2;ratioP2;P2;SDS_P1;SDS_P2;PMS_P1;PMS_P2;Temp;Humidity;BMP_temperature;BMP_pressure;BME280_temperature;BME280_humidity;BME280_pressure;Samples;Min_cycle;Max_cycle;Signal;HPM_P1;HPM_P2
2023/01/10 00:01:48;;;;;;;22.20;5.57;;;4.20;99.90;;;;;;4995070;28;20081;-76
2023/01/10 00:04:14;;;;;;;25.83;5.17;;;4.10;99.90;;;;;;5012134;28;20045;-76
2023/01/10 00:06:40;;;;;;;18.63;5.20;;;3.90;99.90;;;;;;5012310;28;20164;-76
2023/01/10 00:09:05;;;;;;;21.90;4.90;;;3.90;99.90;;;;;;5011574;28;20042;-76
2023/01/10 00:14:15;;;;;;;28.60;4.93;;;3.70;99.90;;;;;;5011699;28;20053;-76
2023/01/10 00:16:41;;;;;;;34.97;5.70;;;3.60;99.90;;;;;;5012052;28;20046;-76
2023/01/10 00:19:09;;;;;;;32.87;5.87;;;3.50;99.90;;;;;;5011862;28;20092;-76
2023/01/10 00:21:35;;;;;;;31.73;6.33;;;3.70;99.90;;;;;;4994191;28;20054;-77
2023/01/10 00:24:20;;;;;;;34.40;7.37;;;3.80;99.90;;;;;;5012038;28;20049;-76
2023/01/10 00:26:50;;;;;;;35.77;6.40;;;4.20;99.90;;;;;;4992147;28;20048;-76
2023/01/10 00:29:27;;;;;;;23.27;6.30;;;4.30;99.90;;;;;;5004417;28;20068;-75
2023/01/10 00:31:54;;;;;;;31.97;6.87;;;4.80;99.90;;;;;;4992337;28;20042;-76
2023/01/10 00:34:19;;;;;;;26.23;5.73;;;4.70;99.90;;;;;;4958943;28;20085;-76
2023/01/10 00:36:48;;;;;;;36.83;6.23;;;4.60;99.90;;;;;;5008793;28;20046;-76
2023/01/10 00:39:17;;;;;;;34.50;7.00;;;4.60;99.90;;;;;;5011659;28;20041;-76
2023/01/10 00:44:45;;;;;;;28.15;5.78;;;4.70;99.90;;;;;;4911945;29;20048;-76
2023/01/10 00:47:12;;;;;;;27.17;5.47;;;4.60;99.90;;;;;;4990749;28;20054;-76
2023/01/10 00:49:38;;;;;;;34.03;6.30;;;4.70;99.90;;;;;;5011406;28;20041;-77
2023/01/10 00:52:04;;;;;;;31.70;6.10;;;4.70;99.90;;;;;;5010211;28;20092;-76
2023/01/10 00:54:30;;;;;;;34.63;6.10;;;4.60;99.90;;;;;;5011116;28;20081;-76
2023/01/10 00:56:56;;;;;;;28.70;6.17;;;4.70;99.90;;;;;;5011173;28;20120;-76
2023/01/10 00:59:22;;;;;;;28.70;7.03;;;4.70;99.90;;;;;;5011209;28;20124;-76
2023/01/10 01:01:48;;;;;;;30.80;8.53;;;5.00;99.90;;;;;;4993773;28;20083;-76
2023/01/10 01:04:14;;;;;;;23.60;5.33;;;5.10;99.90;;;;;;5010162;28;20561;-76
2023/01/10 01:06:42;;;;;;;26.70;5.57;;;5.20;99.90;;;;;;4993364;28;20318;-76
2023/01/10 01:09:08;;;;;;;26.27;7.13;;;5.30;99.90;;;;;;5011269;28;20120;-77
2023/01/10 01:11:34;;;;;;;31.37;6.20;;;5.40;99.90;;;;;;5010968;28;20132;-76
2023/01/10 01:13:59;;;;;;;33.80;6.50;;;5.40;99.90;;;;;;5011217;28;20101;-76
2023/01/10 01:16:25;;;;;;;29.60;6.00;;;5.40;99.90;;;;;;5010346;28;20054;-78
2023/01/10 01:18:51;;;;;;;37.13;7.63;;;5.40;99.90;;;;;;5010036;28;20045;-76
2023/01/10 01:21:17;;;;;;;24.80;5.30;;;5.50;99.90;;;;;;5010970;28;20081;-77
2023/01/10 01:23:43;;;;;;;26.07;6.70;;;5.40;99.90;;;;;;5010989;28;20480;-76
2023/01/10 01:26:09;;;;;;;28.80;6.03;;;5.30;99.90;;;;;;5010463;28;20050;-76
2023/01/10 01:28:35;;;;;;;36.47;6.73;;;5.30;99.90;;;;;;5010433;28;20119;-76
2023/01/10 01:31:09;;;;;;;27.70;6.17;;;5.20;99.90;;;;;;5009908;28;20042;-77
2023/01/10 01:33:35;;;;;;;29.17;5.87;;;5.20;99.90;;;;;;5010752;28;20387;-76
2023/01/10 01:36:01;;;;;;;29.63;6.07;;;5.20;99.90;;;;;;5010518;28;20133;-76
2023/01/10 01:38:27;;;;;;;30.23;5.73;;;5.00;99.90;;;;;;5010495;28;20053;-76
2023/01/10 01:40:53;;;;;;;34.90;6.60;;;4.90;99.90;;;;;;5010018;28;20395;-77
2023/01/10 01:43:26;;;;;;;33.50;6.63;;;4.90;99.90;;;;;;5009990;28;20054;-76
2023/01/10 01:45:52;;;;;;;35.63;6.23;;;4.80;99.90;;;;;;5009843;28;20460;-77
2023/01/10 01:48:30;;;;;;;25.57;5.87;;;4.70;99.90;;;;;;5010406;28;20045;-76
2023/01/10 01:51:08;;;;;;;34.90;5.73;;;4.70;99.90;;;;;;5010168;28;20061;-76
2023/01/10 01:53:40;;;;;;;30.37;6.00;;;4.70;99.90;;;;;;5000896;28;20145;-76
2023/01/10 01:56:11;;;;;;;29.30;6.10;;;4.80;99.90;;;;;;4991828;28;20109;-76
2023/01/10 01:58:48;;;;;;;32.72;6.45;;;4.70;99.90;;;;;;5010276;28;20050;-76
2023/01/10 02:01:15;;;;;;;36.87;6.73;;;4.70;99.90;;;;;;5010034;28;20125;-76
2023/01/10 02:03:44;;;;;;;32.67;7.03;;;4.70;99.90;;;;;;5010327;28;20084;-76
2023/01/10 02:06:10;;;;;;;27.23;6.10;;;4.70;99.90;;;;;;5009248;28;20558;-77
2023/01/10 02:08:41;;;;;;;26.90;5.83;;;4.70;99.90;;;;;;4992839;28;20050;-77
2023/01/10 02:11:10;;;;;;;25.80;4.53;;;4.80;99.90;;;;;;4972577;28;20046;-76
2023/01/10 02:13:44;;;;;;;30.47;6.17;;;4.80;99.90;;;;;;4973599;28;20377;-76
2023/01/10 02:16:11;;;;;;;33.40;6.00;;;5.00;99.90;;;;;;4971432;28;20050;-76
2023/01/10 02:18:41;;;;;;;35.80;6.40;;;5.10;99.90;;;;;;4990176;28;20038;-76
2023/01/10 02:21:25;;;;;;;31.63;6.23;;;5.20;99.90;;;;;;4989907;28;20086;-76
2023/01/10 02:24:30;;;;;;;21.43;5.30;;;5.20;99.90;;;;;;4997092;28;20522;-76
2023/01/10 02:27:16;;;;;;;21.60;5.37;;;5.30;99.90;;;;;;4990331;28;20076;-77
2023/01/10 02:30:10;;;;;;;24.80;5.60;;;5.30;99.90;;;;;;5005796;28;20144;-76
2023/01/10 02:32:51;;;;;;;18.57;4.33;;;5.30;99.90;;;;;;5009169;28;20432;-76
2023/01/10 02:35:26;;;;;;;19.92;4.90;;;5.30;99.90;;;;;;5009589;28;20088;-76
2023/01/10 02:38:29;;;;;;;18.57;4.93;;;5.20;99.90;;;;;;5009440;28;20484;-76
2023/01/10 02:41:14;;;;;;;19.47;5.00;;;5.20;99.90;;;;;;5008231;28;20162;-78
2023/01/10 02:44:09;;;;;;;22.97;5.40;;;5.20;99.90;;;;;;5002123;28;20076;-76
2023/01/10 02:46:37;;;;;;;26.10;5.77;;;5.30;99.90;;;;;;4985940;28;20524;-76
2023/01/10 02:49:03;;;;;;;29.47;6.07;;;5.30;99.90;;;;;;4988953;28;20058;-76
2023/01/10 02:51:32;;;;;;;28.30;6.37;;;5.20;99.90;;;;;;5006556;28;20053;-77
2023/01/10 02:54:01;;;;;;;27.30;6.17;;;5.20;99.90;;;;;;4989942;28;20507;-77
2023/01/10 02:56:55;;;;;;;25.00;5.73;;;5.30;99.90;;;;;;5007993;28;20045;-76
2023/01/10 02:59:40;;;;;;;29.70;6.60;;;5.20;99.90;;;;;;4991475;28;20460;-76
2023/01/10 03:02:12;;;;;;;26.50;6.47;;;5.20;99.90;;;;;;5008928;28;20049;-76
2023/01/10 03:05:12;;;;;;;26.57;6.63;;;5.20;99.90;;;;;;4991103;28;20480;-77
2023/01/10 03:07:42;;;;;;;32.30;6.57;;;5.20;99.90;;;;;;5008914;28;20479;-76
2023/01/10 03:10:07;;;;;;;33.03;6.40;;;5.10;99.90;;;;;;4989771;28;20077;-76
2023/01/10 03:12:40;;;;;;;26.00;7.27;;;5.10;99.90;;;;;;4991620;28;20487;-75
2023/01/10 03:15:09;;;;;;;30.90;6.37;;;5.20;99.90;;;;;;5009482;28;20054;-76
2023/01/10 03:17:37;;;;;;;30.53;7.00;;;5.10;99.90;;;;;;4989874;28;20112;-76
2023/01/10 03:20:05;;;;;;;28.97;6.67;;;5.20;99.90;;;;;;4991825;28;20049;-76
2023/01/10 03:22:34;;;;;;;21.13;6.43;;;5.20;99.90;;;;;;4991683;28;20041;-79
2023/01/10 03:25:02;;;;;;;32.23;7.17;;;5.20;99.90;;;;;;4982684;28;20267;-76
2023/01/10 03:27:37;;;;;;;36.13;7.17;;;5.30;99.90;;;;;;5008189;28;20088;-76
2023/01/10 03:30:11;;;;;;;29.40;7.77;;;5.20;99.90;;;;;;5007597;28;20045;-76
2023/01/10 03:32:37;;;;;;;27.77;8.73;;;5.30;99.90;;;;;;5011658;28;20044;-76
2023/01/10 03:35:04;;;;;;;31.80;7.43;;;5.30;99.90;;;;;;5013258;28;20038;-76
2023/01/10 03:37:41;;;;;;;33.47;7.33;;;5.40;99.90;;;;;;5010948;28;20034;-77
2023/01/10 03:40:26;;;;;;;25.60;6.90;;;5.50;99.90;;;;;;5012457;28;20081;-76
2023/01/10 03:46:07;;;;;;;27.27;6.83;;;5.50;99.90;;;;;;5011826;28;20459;-76
2023/01/10 03:48:37;;;;;;;28.93;7.00;;;5.60;99.90;;;;;;4980073;28;20052;-76
2023/01/10 03:51:05;;;;;;;31.63;7.00;;;5.60;99.90;;;;;;4994709;28;20054;-76
2023/01/10 03:53:36;;;;;;;28.87;7.00;;;5.60;99.90;;;;;;5005274;28;20046;-76
2023/01/10 03:56:01;;;;;;;26.80;7.43;;;5.60;99.90;;;;;;4991699;28;20050;-76
2023/01/10 03:58:28;;;;;;;24.73;7.63;;;5.60;99.90;;;;;;5010986;28;20057;-76
2023/01/10 04:00:54;;;;;;;31.40;8.03;;;5.60;99.90;;;;;;4994045;28;20511;-76
2023/01/10 04:03:20;;;;;;;29.70;7.47;;;5.60;99.90;;;;;;4994491;28;20553;-76
2023/01/10 04:05:46;;;;;;;28.40;7.43;;;5.60;99.90;;;;;;5012092;28;20049;-76
2023/01/10 04:08:11;;;;;;;39.07;7.70;;;5.40;99.90;;;;;;5011921;28;20057;-76
2023/01/10 04:10:37;;;;;;;29.40;7.00;;;5.50;99.90;;;;;;5006622;28;20038;-76
2023/01/10 04:13:03;;;;;;;28.80;6.40;;;5.60;99.90;;;;;;5011299;28;20399;-76
2023/01/10 04:15:30;;;;;;;32.83;6.97;;;5.40;99.90;;;;;;5012057;28;20046;-76
2023/01/10 04:17:55;;;;;;;38.70;7.33;;;5.40;99.90;;;;;;5009164;28;20534;-76
2023/01/10 04:20:25;;;;;;;27.27;6.77;;;5.40;99.90;;;;;;5009635;28;20335;-76
2023/01/10 04:22:53;;;;;;;35.43;7.07;;;5.40;99.90;;;;;;4994310;28;20045;-76
2023/01/10 04:25:20;;;;;;;29.07;5.80;;;5.40;99.90;;;;;;4993984;28;20057;-78
2023/01/10 04:27:48;;;;;;;33.40;7.43;;;5.40;99.90;;;;;;5011947;28;20037;-76
2023/01/10 04:30:14;;;;;;;31.10;6.50;;;5.30;99.90;;;;;;5007276;28;20057;-76
2023/01/10 04:32:40;;;;;;;34.67;6.30;;;5.30;99.90;;;;;;5011713;28;20407;-77
2023/01/10 04:35:06;;;;;;;34.17;7.00;;;5.40;99.90;;;;;;5010791;28;20042;-77
2023/01/10 04:37:31;;;;;;;30.53;6.80;;;5.20;99.90;;;;;;5006897;28;20690;-77
2023/01/10 04:39:57;;;;;;;25.00;6.60;;;5.30;99.90;;;;;;5009513;28;20077;-76
2023/01/10 04:42:23;;;;;;;31.53;6.83;;;5.40;99.90;;;;;;5011379;28;20380;-76
2023/01/10 04:44:49;;;;;;;33.70;7.33;;;5.40;99.90;;;;;;5012119;28;20042;-76
2023/01/10 04:47:14;;;;;;;28.30;8.37;;;5.40;99.90;;;;;;4994106;28;20069;-76
2023/01/10 04:49:40;;;;;;;32.57;7.80;;;5.60;99.90;;;;;;5011050;28;20081;-76
2023/01/10 04:52:06;;;;;;;39.83;8.33;;;5.50;99.90;;;;;;4993472;28;20068;-77
2023/01/10 04:54:31;;;;;;;37.80;10.33;;;5.50;99.90;;;;;;5008622;28;20052;-76
2023/01/10 04:56:57;;;;;;;41.40;8.80;;;5.60;99.90;;;;;;5010148;28;20046;-77
2023/01/10 04:59:23;;;;;;;35.50;22.13;;;5.50;99.90;;;;;;5010296;28;20073;-76
2023/01/10 05:01:48;;;;;;;24.97;7.17;;;5.50;99.90;;;;;;5011282;28;20046;-76
2023/01/10 05:04:14;;;;;;;31.30;11.97;;;5.60;99.90;;;;;;4991118;28;20049;-76
2023/01/10 05:06:40;;;;;;;32.67;5.97;;;5.60;99.90;;;;;;4988294;28;20053;-77
2023/01/10 05:09:07;;;;;;;29.30;6.97;;;5.60;99.90;;;;;;5006192;28;20044;-77
2023/01/10 05:11:32;;;;;;;33.20;6.67;;;5.60;99.90;;;;;;5007858;28;20046;-76
2023/01/10 05:13:58;;;;;;;26.53;6.30;;;5.60;99.90;;;;;;5002668;28;20045;-76
2023/01/10 05:16:24;;;;;;;24.23;7.53;;;5.50;99.90;;;;;;4987797;28;20069;-78
2023/01/10 05:18:50;;;;;;;29.13;6.90;;;5.60;99.90;;;;;;5006854;28;20606;-77
2023/01/10 05:21:16;;;;;;;25.03;7.17;;;5.50;99.90;;;;;;4990173;28;20044;-76
2023/01/10 05:23:42;;;;;;;29.43;10.03;;;5.60;99.90;;;;;;5009648;28;20570;-76
2023/01/10 05:26:16;;;;;;;38.10;6.97;;;5.60;99.90;;;;;;4992825;28;20050;-76
2023/01/10 05:28:43;;;;;;;22.30;6.93;;;5.60;99.90;;;;;;5010231;28;20085;-76
2023/01/10 05:31:11;;;;;;;24.87;6.10;;;5.60;99.90;;;;;;5009822;28;20518;-76
2023/01/10 05:33:37;;;;;;;22.77;6.13;;;5.60;99.90;;;;;;4993458;28;20052;-76
2023/01/10 05:36:04;;;;;;;26.00;5.90;;;5.70;99.90;;;;;;5010230;28;20045;-76
2023/01/10 05:38:31;;;;;;;23.03;6.43;;;5.70;99.90;;;;;;5010496;28;20041;-77
2023/01/10 05:40:58;;;;;;;28.53;5.73;;;5.70;99.90;;;;;;5010118;28;20048;-77
2023/01/10 05:43:25;;;;;;;25.43;6.27;;;5.60;99.90;;;;;;5010460;28;20041;-76
2023/01/10 05:45:51;;;;;;;25.67;7.50;;;5.60;99.90;;;;;;5010362;28;20488;-76
2023/01/10 05:48:17;;;;;;;29.17;6.50;;;5.60;99.90;;;;;;5010119;28;20084;-76
2023/01/10 05:50:43;;;;;;;25.37;6.53;;;5.60;99.90;;;;;;5010155;28;20045;-76
2023/01/10 05:53:09;;;;;;;25.53;6.40;;;5.70;99.90;;;;;;4976157;28;20049;-76
2023/01/10 05:55:34;;;;;;;28.07;6.97;;;5.60;99.90;;;;;;5009876;28;20055;-76
2023/01/10 05:58:00;;;;;;;20.57;6.93;;;5.50;99.90;;;;;;5009606;28;20041;-76
2023/01/10 06:00:26;;;;;;;27.43;6.47;;;5.50;99.90;;;;;;5010738;28;20124;-76
2023/01/10 06:02:56;;;;;;;21.90;6.10;;;5.40;99.90;;;;;;5010486;28;20037;-76
2023/01/10 06:05:23;;;;;;;18.23;6.00;;;5.50;99.90;;;;;;5009858;28;20471;-76
2023/01/10 06:07:49;;;;;;;22.67;6.20;;;5.40;99.90;;;;;;4975751;28;20045;-76
2023/01/10 06:10:15;;;;;;;17.80;5.80;;;5.40;99.90;;;;;;4992252;28;20050;-77
2023/01/10 06:12:41;;;;;;;16.03;5.87;;;5.30;99.90;;;;;;5009699;28;20045;-76
2023/01/10 06:15:08;;;;;;;23.87;7.03;;;5.30;99.90;;;;;;4984238;28;20072;-76
2023/01/10 06:17:34;;;;;;;26.17;5.50;;;5.30;99.90;;;;;;5003401;28;20041;-78
2023/01/10 06:20:00;;;;;;;22.77;5.50;;;5.30;99.90;;;;;;5008184;28;20463;-76
2023/01/10 06:22:27;;;;;;;18.73;5.77;;;5.30;99.90;;;;;;4976201;28;20046;-77
2023/01/10 06:24:54;;;;;;;17.83;5.00;;;5.30;99.90;;;;;;5009635;28;20068;-77
2023/01/10 06:27:20;;;;;;;20.47;5.27;;;5.20;99.90;;;;;;5009633;28;20049;-76
2023/01/10 06:29:46;;;;;;;21.97;6.53;;;5.40;99.90;;;;;;5009929;28;20069;-76
2023/01/10 06:32:11;;;;;;;18.47;6.20;;;5.20;99.90;;;;;;5009421;28;20081;-77
2023/01/10 06:34:37;;;;;;;17.07;5.03;;;5.10;99.90;;;;;;5009722;28;20069;-76
2023/01/10 06:37:03;;;;;;;16.10;4.60;;;5.10;99.90;;;;;;5009544;28;20046;-76
2023/01/10 06:39:29;;;;;;;14.23;4.27;;;5.10;99.90;;;;;;4991741;28;20155;-76
2023/01/10 06:41:54;;;;;;;16.93;4.43;;;5.00;99.90;;;;;;5009445;28;20044;-77
2023/01/10 06:44:20;;;;;;;15.90;4.27;;;5.00;99.90;;;;;;4975902;28;20048;-77
2023/01/10 06:46:46;;;;;;;19.03;5.47;;;4.90;99.90;;;;;;4975570;28;20042;-77
2023/01/10 06:49:11;;;;;;;18.93;4.97;;;5.00;99.90;;;;;;5009792;28;20046;-76
2023/01/10 06:51:37;;;;;;;21.63;4.90;;;4.90;99.90;;;;;;5009322;28;20147;-77
2023/01/10 06:54:03;;;;;;;20.30;4.80;;;4.80;99.90;;;;;;5009927;28;20120;-76
2023/01/10 06:56:28;;;;;;;16.73;4.30;;;4.80;99.90;;;;;;4991910;28;20037;-76
2023/01/10 06:58:54;;;;;;;13.43;4.57;;;4.70;99.90;;;;;;5008891;28;20384;-76
2023/01/10 07:01:20;;;;;;;17.27;4.23;;;4.70;99.90;;;;;;4992213;28;20041;-76
2023/01/10 07:03:47;;;;;;;16.57;5.03;;;4.60;99.90;;;;;;5011711;28;20044;-76
2023/01/10 07:06:13;;;;;;;20.60;4.53;;;4.50;99.90;;;;;;5013324;28;20365;-76
2023/01/10 07:08:44;;;;;;;19.23;5.10;;;4.50;99.90;;;;;;5013023;28;20132;-78
2023/01/10 07:11:11;;;;;;;21.48;5.65;;;4.50;99.90;;;;;;5012768;28;20081;-76
2023/01/10 07:13:37;;;;;;;19.77;7.03;;;4.60;99.90;;;;;;5013518;28;20120;-76
2023/01/10 07:16:05;;;;;;;25.93;7.03;;;4.70;99.90;;;;;;4995822;28;20133;-79
2023/01/10 07:18:32;;;;;;;23.47;7.50;;;4.80;99.90;;;;;;4979636;28;20049;-77
2023/01/10 07:20:58;;;;;;;29.10;7.37;;;4.90;99.90;;;;;;4996041;28;20094;-79
2023/01/10 07:23:24;;;;;;;40.63;8.80;;;4.90;99.90;;;;;;5012045;28;20479;-78
2023/01/10 07:25:49;;;;;;;37.97;7.73;;;5.00;99.90;;;;;;5013575;28;20047;-77
2023/01/10 07:28:15;;;;;;;32.43;8.63;;;5.10;99.90;;;;;;5012973;28;20046;-76
2023/01/10 07:30:41;;;;;;;30.83;8.10;;;5.20;99.90;;;;;;5013171;28;20049;-77
2023/01/10 07:33:06;;;;;;;33.97;8.13;;;5.20;99.90;;;;;;5012333;28;20775;-76
2023/01/10 07:35:32;;;;;;;41.00;9.77;;;5.20;99.90;;;;;;5012654;28;20092;-76
2023/01/10 07:37:58;;;;;;;39.37;11.70;;;5.20;99.90;;;;;;5011961;28;20467;-76
2023/01/10 07:40:25;;;;;;;39.37;8.83;;;5.20;99.90;;;;;;4995700;28;20553;-77
2023/01/10 07:42:58;;;;;;;43.57;9.97;;;5.20;99.90;;;;;;5012660;28;20060;-76
2023/01/10 07:45:25;;;;;;;39.63;9.33;;;5.30;99.90;;;;;;5012826;28;20077;-76
2023/01/10 07:47:56;;;;;;;45.27;11.80;;;5.30;99.90;;;;;;4995010;28;20336;-77
2023/01/10 07:50:21;;;;;;;44.27;10.10;;;5.30;99.90;;;;;;5012618;28;20120;-77
2023/01/10 07:52:47;;;;;;;38.30;12.23;;;5.30;99.90;;;;;;5012070;28;20141;-76
2023/01/10 07:55:13;;;;;;;50.57;10.40;;;5.30;99.90;;;;;;5012542;28;20052;-76
2023/01/10 07:57:38;;;;;;;42.77;10.53;;;5.40;99.90;;;;;;5012354;28;20479;-77
2023/01/10 08:00:05;;;;;;;42.93;9.97;;;5.30;99.90;;;;;;5012495;28;20092;-77
2023/01/10 08:02:30;;;;;;;36.00;9.40;;;5.30;99.90;;;;;;5011576;28;20137;-76
2023/01/10 08:04:56;;;;;;;50.50;10.43;;;5.30;99.90;;;;;;5012550;28;20133;-76
2023/01/10 08:07:22;;;;;;;41.70;10.50;;;5.20;99.90;;;;;;5012167;28;20048;-76
2023/01/10 08:09:47;;;;;;;39.97;8.97;;;5.30;99.90;;;;;;5011923;28;20046;-77
2023/01/10 08:12:13;;;;;;;42.47;9.67;;;5.20;99.90;;;;;;5012085;28;20045;-76
2023/01/10 08:14:39;;;;;;;37.27;9.23;;;5.10;99.90;;;;;;5012226;28;20046;-76
2023/01/10 08:17:04;;;;;;;44.20;9.37;;;5.10;99.90;;;;;;5011867;28;20096;-77
2023/01/10 08:19:30;;;;;;;45.83;9.93;;;5.00;99.90;;;;;;5012119;28;20056;-77
2023/01/10 08:21:55;;;;;;;41.37;9.83;;;5.00;99.90;;;;;;4994202;28;20045;-77
2023/01/10 08:24:21;;;;;;;41.07;9.37;;;5.00;99.90;;;;;;4994563;28;20447;-76
2023/01/10 08:26:47;;;;;;;43.50;10.27;;;4.90;99.90;;;;;;5011442;28;20045;-76
2023/01/10 08:29:12;;;;;;;41.57;10.07;;;4.90;99.90;;;;;;5011195;28;20045;-76
2023/01/10 08:31:40;;;;;;;37.40;9.40;;;4.90;99.90;;;;;;5011363;28;20081;-76
2023/01/10 08:34:05;;;;;;;40.37;10.37;;;4.80;99.90;;;;;;4994262;28;20439;-77
2023/01/10 08:36:31;;;;;;;40.53;9.63;;;4.90;99.90;;;;;;5011247;28;20041;-77
2023/01/10 08:38:57;;;;;;;43.97;9.37;;;5.00;99.90;;;;;;5011762;28;20038;-77
2023/01/10 08:41:22;;;;;;;39.07;9.93;;;5.00;99.90;;;;;;5011031;28;20484;-79
2023/01/10 08:43:49;;;;;;;43.57;10.30;;;5.00;99.90;;;;;;5011825;28;20041;-76
2023/01/10 08:46:16;;;;;;;45.97;11.30;;;5.10;99.90;;;;;;5010959;28;20446;-76
2023/01/10 08:48:42;;;;;;;43.43;9.93;;;5.00;99.90;;;;;;5011873;28;20053;-77
2023/01/10 08:51:09;;;;;;;34.40;11.83;;;5.20;99.90;;;;;;5010985;28;20123;-77
2023/01/10 08:53:35;;;;;;;43.50;10.97;;;5.20;99.90;;;;;;4993228;28;20089;-78
2023/01/10 08:56:01;;;;;;;41.67;12.40;;;5.30;99.90;;;;;;4993588;28;20053;-77
2023/01/10 08:58:26;;;;;;;42.50;15.63;;;5.50;99.90;;;;;;5011629;28;20042;-77
2023/01/10 09:00:52;;;;;;;52.10;11.17;;;5.70;99.90;;;;;;5011317;28;20375;-76
2023/01/10 09:03:18;;;;;;;35.43;10.60;;;5.70;99.90;;;;;;5011493;28;20063;-76
2023/01/10 09:05:44;;;;;;;42.60;10.10;;;5.70;99.90;;;;;;4977581;28;20073;-76
2023/01/10 09:08:10;;;;;;;35.47;12.00;;;5.70;99.90;;;;;;5010461;28;20046;-76
2023/01/10 09:10:35;;;;;;;35.70;10.97;;;5.70;99.90;;;;;;5010964;28;20459;-77
2023/01/10 09:13:03;;;;;;;43.23;12.03;;;5.70;99.90;;;;;;5011054;28;20072;-77
2023/01/10 09:15:31;;;;;;;35.10;9.40;;;5.80;99.90;;;;;;5011078;28;20056;-76
2023/01/10 09:17:59;;;;;;;40.63;10.00;;;5.90;99.90;;;;;;5010838;28;20038;-77
2023/01/10 09:20:27;;;;;;;36.43;12.60;;;6.00;99.90;;;;;;4992580;28;20073;-77
2023/01/10 09:22:53;;;;;;;39.20;11.70;;;6.00;99.90;;;;;;5011006;28;20061;-77
2023/01/10 09:25:19;;;;;;;37.73;14.03;;;6.00;99.90;;;;;;4992230;28;20038;-77
2023/01/10 09:27:45;;;;;;;31.77;10.07;;;6.00;99.90;;;;;;5010289;28;20042;-76
2023/01/10 09:30:11;;;;;;;40.20;10.40;;;5.90;99.90;;;;;;4993493;28;20108;-77
2023/01/10 09:32:37;;;;;;;29.93;9.57;;;5.90;99.90;;;;;;5009951;28;20128;-76
2023/01/10 09:35:03;;;;;;;29.10;9.67;;;5.90;99.90;;;;;;5010801;28;20121;-77
2023/01/10 09:37:28;;;;;;;35.73;7.70;;;5.90;99.90;;;;;;5010661;28;20081;-76
2023/01/10 09:39:54;;;;;;;33.87;8.70;;;5.80;99.90;;;;;;4976443;28;20052;-77
2023/01/10 09:42:32;;;;;;;35.80;10.63;;;5.90;99.90;;;;;;4993083;28;20369;-76
2023/01/10 09:45:20;;;;;;;32.97;9.47;;;5.90;99.90;;;;;;5010161;28;20041;-76
2023/01/10 09:48:03;;;;;;;26.37;8.33;;;5.90;99.90;;;;;;5010426;28;20077;-76
2023/01/10 09:50:42;;;;;;;26.50;8.97;;;6.00;99.90;;;;;;5010690;28;20407;-76
2023/01/10 09:53:13;;;;;;;31.70;12.87;;;6.00;99.90;;;;;;5009527;28;20387;-77
2023/01/10 09:55:41;;;;;;;36.42;10.00;;;6.00;99.90;;;;;;5010124;28;20050;-77
2023/01/10 09:58:15;;;;;;;31.00;16.10;;;5.90;99.90;;;;;;4992544;28;20050;-76
2023/01/10 10:00:51;;;;;;;28.33;8.40;;;6.00;99.90;;;;;;4992510;28;20041;-76
2023/01/10 10:03:28;;;;;;;33.13;11.83;;;6.00;99.90;;;;;;4992555;28;20046;-77
2023/01/10 10:05:54;;;;;;;28.33;9.43;;;6.00;99.90;;;;;;5010560;28;20041;-76
2023/01/10 10:08:20;;;;;;;27.37;8.93;;;6.00;99.90;;;;;;5010230;28;20508;-77
2023/01/10 10:11:00;;;;;;;33.07;10.50;;;6.10;99.90;;;;;;5009910;28;20042;-76
2023/01/10 10:14:03;;;;;;;33.33;11.73;;;6.00;99.90;;;;;;5010283;28;20088;-77
2023/01/10 10:16:53;;;;;;;36.53;9.63;;;6.10;99.90;;;;;;5009481;28;20041;-77
2023/01/10 10:19:52;;;;;;;31.90;10.83;;;6.10;99.90;;;;;;5010092;28;20361;-76
2023/01/10 10:22:48;;;;;;;40.17;15.90;;;6.20;99.90;;;;;;5009882;28;20092;-76
2023/01/10 10:25:16;;;;;;;33.03;11.43;;;6.20;99.90;;;;;;5007369;28;20272;-76
2023/01/10 10:27:51;;;;;;;43.43;13.23;;;6.20;99.90;;;;;;5009943;28;20088;-77
2023/01/10 10:30:33;;;;;;;43.70;10.43;;;6.20;99.90;;;;;;5009898;28;20057;-77
2023/01/10 10:33:19;;;;;;;41.97;12.50;;;6.20;99.90;;;;;;5009355;28;20085;-76
2023/01/10 10:35:53;;;;;;;44.30;13.70;;;6.20;99.90;;;;;;5010375;28;20041;-76
2023/01/10 10:38:28;;;;;;;40.37;12.27;;;6.20;99.90;;;;;;4991118;28;20053;-76
2023/01/10 10:40:56;;;;;;;39.00;12.20;;;6.30;99.90;;;;;;5010048;28;20044;-76
2023/01/10 10:43:26;;;;;;;44.87;17.20;;;6.30;99.90;;;;;;5009541;28;20080;-76
2023/01/10 10:46:08;;;;;;;37.10;13.77;;;6.30;99.90;;;;;;4991116;28;20046;-76
2023/01/10 10:49:09;;;;;;;31.70;10.48;;;6.40;99.90;;;;;;4996871;28;20459;-76
2023/01/10 10:51:40;;;;;;;33.03;10.07;;;6.40;99.90;;;;;;4977493;28;20049;-76
2023/01/10 10:54:11;;;;;;;41.70;14.50;;;6.40;99.90;;;;;;5005913;28;20408;-76
2023/01/10 10:56:37;;;;;;;36.08;12.82;;;6.50;99.90;;;;;;4998960;28;20529;-76
2023/01/10 10:59:04;;;;;;;36.27;20.53;;;6.50;99.90;;;;;;4999785;28;20573;-79
2023/01/10 11:01:30;;;;;;;34.73;18.60;;;6.60;99.90;;;;;;5000175;28;20045;-77
2023/01/10 11:04:04;;;;;;;31.17;11.17;;;6.40;99.90;;;;;;5006792;28;20096;-79
2023/01/10 11:06:31;;;;;;;39.07;13.27;;;6.70;99.90;;;;;;4988615;28;20145;-76
2023/01/10 11:09:00;;;;;;;36.83;11.17;;;6.60;99.90;;;;;;5008310;28;20507;-76
2023/01/10 11:11:32;;;;;;;42.53;15.30;;;6.60;99.90;;;;;;5000953;28;20077;-76
2023/01/10 11:14:00;;;;;;;39.80;18.73;;;6.60;99.90;;;;;;4987708;28;20034;-76
2023/01/10 11:16:32;;;;;;;35.33;15.60;;;6.60;99.90;;;;;;5003259;28;20050;-77
2023/01/10 11:19:16;;;;;;;;;;;6.60;99.90;;;;;;5007141;28;20042;-77
2023/01/10 11:21:51;;;;;;;37.90;12.13;;;6.60;99.90;;;;;;5007814;28;20052;-79
2023/01/10 11:24:33;;;;;;;35.23;10.83;;;6.60;99.90;;;;;;5009287;28;20045;-76
2023/01/10 11:27:03;;;;;;;42.30;16.67;;;6.60;99.90;;;;;;4992021;28;20054;-76
2023/01/10 11:29:44;;;;;;;52.77;27.43;;;6.60;99.90;;;;;;5009093;28;20030;-77
2023/01/10 11:32:16;;;;;;;40.63;12.20;;;6.60;99.90;;;;;;5008013;28;20049;-77
2023/01/10 11:34:52;;;;;;;45.00;23.37;;;6.60;99.90;;;;;;5009637;28;20049;-76
2023/01/10 11:37:28;;;;;;;45.10;14.63;;;6.60;99.90;;;;;;4972576;28;20050;-76
2023/01/10 11:40:30;;;;;;;42.13;12.77;;;6.60;99.90;;;;;;4990048;28;20042;-80
2023/01/10 11:42:58;;;;;;;49.30;31.60;;;6.60;99.90;;;;;;4909721;29;20048;-76
2023/01/10 11:45:28;;;;;;;41.50;16.63;;;6.70;99.90;;;;;;4975327;28;20062;-78
2023/01/10 11:48:20;;;;;;;39.93;15.00;;;6.60;99.90;;;;;;5003256;28;20086;-76
2023/01/10 11:50:52;;;;;;;49.40;24.33;;;6.60;99.90;;;;;;5012934;28;20065;-75
2023/01/10 11:53:41;;;;;;;54.70;18.80;;;6.60;99.90;;;;;;4994828;28;20368;-77
2023/01/10 11:56:10;;;;;;;46.53;18.77;;;6.60;99.90;;;;;;4994484;28;20046;-76
2023/01/10 11:58:37;;;;;;;57.70;26.20;;;6.50;99.90;;;;;;5012004;28;20472;-77
2023/01/10 12:01:03;;;;;;;54.30;30.20;;;6.70;99.90;;;;;;4994655;28;20037;-77
2023/01/10 12:03:39;;;;;;;47.37;19.40;;;6.60;99.90;;;;;;5012683;28;20045;-77
2023/01/10 12:06:16;;;;;;;44.53;19.47;;;6.50;99.90;;;;;;4994464;28;20057;-80
2023/01/10 12:08:43;;;;;;;46.90;28.97;;;6.50;99.90;;;;;;5012442;28;20526;-77
2023/01/10 12:11:12;;;;;;;50.67;23.73;;;6.50;99.90;;;;;;4994398;28;20058;-78
2023/01/10 12:13:47;;;;;;;44.30;22.90;;;6.50;99.90;;;;;;5012763;28;20053;-76
2023/01/10 12:16:22;;;;;;;53.27;40.57;;;6.50;99.90;;;;;;5011638;28;20045;-76
2023/01/10 12:18:50;;;;;;;46.30;21.80;;;6.40;99.90;;;;;;4992929;28;20053;-76
2023/01/10 12:21:28;;;;;;;56.90;32.47;;;6.40;99.90;;;;;;4975054;28;20047;-76
2023/01/10 12:23:57;;;;;;;41.80;16.43;;;6.40;99.90;;;;;;4998851;28;20399;-77
2023/01/10 12:26:25;;;;;;;50.63;26.73;;;6.40;99.90;;;;;;4994143;28;20077;-76
2023/01/10 12:28:56;;;;;;;44.23;20.93;;;6.40;99.90;;;;;;4994191;28;20052;-76
2023/01/10 12:31:22;;;;;;;44.73;17.23;;;6.30;99.90;;;;;;5011982;28;20049;-76
2023/01/10 12:33:54;;;;;;;46.17;18.57;;;6.40;99.90;;;;;;5012255;28;20054;-76
2023/01/10 12:36:38;;;;;;;47.80;26.10;;;6.30;99.90;;;;;;4993909;28;20371;-76
2023/01/10 12:39:04;;;;;;;53.53;19.20;;;6.30;99.90;;;;;;5011512;28;20053;-76
2023/01/10 12:44:43;;;;;;;40.27;13.93;;;6.30;99.90;;;;;;5011537;28;20137;-76
2023/01/10 12:47:47;;;;;;;50.87;29.97;;;6.30;99.90;;;;;;5010699;28;20510;-76
2023/01/10 12:50:24;;;;;;;50.17;28.77;;;6.30;99.90;;;;;;5012224;28;20048;-77
2023/01/10 12:53:10;;;;;;;38.53;20.30;;;6.20;99.90;;;;;;5010767;28;20500;-76
2023/01/10 12:55:44;;;;;;;49.30;26.53;;;6.30;99.90;;;;;;5011842;28;20058;-75
2023/01/10 12:58:20;;;;;;;45.43;26.43;;;6.20;99.90;;;;;;5011276;28;20056;-76
2023/01/10 13:00:51;;;;;;;39.50;13.83;;;6.20;99.90;;;;;;5009712;28;20472;-76
2023/01/10 13:03:23;;;;;;;49.75;12.93;;;6.20;99.90;;;;;;5011614;28;20041;-76
2023/01/10 13:05:51;;;;;;;41.07;15.93;;;6.20;99.90;;;;;;4993917;28;20081;-76
2023/01/10 13:08:22;;;;;;;43.87;21.40;;;6.20;99.90;;;;;;5011416;28;20045;-76
2023/01/10 13:10:51;;;;;;;37.92;15.77;;;6.20;99.90;;;;;;4977233;28;20124;-76